sensor_id;sensor_type;location;lat;lon;timestamp;temperature;humidity
11079;DHT22;5592;49.234;7.268;2023-01-24T00:01:41;2.00;99.90
11079;DHT22;5592;49.234;7.268;2023-01-24T00:04:07;2.00;99.90
11079;DHT22;5592;49.234;7.268;2023-01-24T00:06:33;2.00;99.90
11079;DHT22;5592;49.234;7.268;2023-01-24T00:08:59;2.00;99.90
11079;DHT22;5592;49.234;7.268;2023-01-24T00:11:25;2.00;99.90
11079;DHT22;5592;49.234;7.268;2023-01-24T00:13:51;2.00;99.90
11079;DHT22;5592;49.234;7.268;2023-01-24T00:16:20;2.00;99.90
11079;DHT22;5592;49.234;7.268;2023-01-24T00:18:47;2.00;99.90
11079;DHT22;5592;49.234;7.268;2023-01-24T00:21:21;2.00;99.90
11079;DHT22;5592;49.234;7.268;2023-01-24T00:23:50;2.00;99.90
11079;DHT22;5592;49.234;7.268;2023-01-24T00:26:16;2.00;99.90
11079;DHT22;5592;49.234;7.268;2023-01-24T00:28:43;2.00;99.90
11079;DHT22;5592;49.234;7.268;2023-01-24T00:31:08;2.00;99.90
11079;DHT22;5592;49.234;7.268;2023-01-24T00:33:34;2.00;99.90
11079;DHT22;5592;49.234;7.268;2023-01-24T00:36:00;2.00;99.90
11079;DHT22;5592;49.234;7.268;2023-01-24T00:38:28;2.00;99.90
11079;DHT22;5592;49.234;7.268;2023-01-24T00:40:54;2.00;99.90
11079;DHT22;5592;49.234;7.268;2023-01-24T00:43:19;1.90;99.90
11079;DHT22;5592;49.234;7.268;2023-01-24T00:45:45;1.90;99.90
11079;DHT22;5592;49.234;7.268;2023-01-24T00:48:11;1.90;99.90
11079;DHT22;5592;49.234;7.268;2023-01-24T00:50:37;1.90;99.90
11079;DHT22;5592;49.234;7.268;2023-01-24T00:53:03;1.90;99.90
11079;DHT22;5592;49.234;7.268;2023-01-24T00:55:29;1.90;99.90
11079;DHT22;5592;49.234;7.268;2023-01-24T00:57:55;1.90;99.90
11079;DHT22;5592;49.234;7.268;2023-01-24T01:00:22;1.90;99.90
11079;DHT22;5592;49.234;7.268;2023-01-24T01:02:52;1.90;99.90
11079;DHT22;5592;49.234;7.268;2023-01-24T01:05:18;1.90;99.90
11079;DHT22;5592;49.234;7.268;2023-01-24T01:07:44;1.90;99.90
11079;DHT22;5592;49.234;7.268;2023-01-24T01:10:10;2.00;99.90
11079;DHT22;5592;49.234;7.268;2023-01-24T01:12:36;1.90;99.90
11079;DHT22;5592;49.234;7.268;2023-01-24T01:15:02;1.90;99.90
11079;DHT22;5592;49.234;7.268;2023-01-24T01:17:27;1.90;99.90
11079;DHT22;5592;49.234;7.268;2023-01-24T01:19:53;1.90;99.90
11079;DHT22;5592;49.234;7.268;2023-01-24T01:22:19;1.90;99.90
11079;DHT22;5592;49.234;7.268;2023-01-24T01:24:45;2.00;99.90
11079;DHT22;5592;49.234;7.268;2023-01-24T01:27:11;2.00;99.90
11079;DHT22;5592;49.234;7.268;2023-01-24T01:29:36;2.00;99.90
11079;DHT22;5592;49.234;7.268;2023-01-24T01:32:02;2.00;99.90
11079;DHT22;5592;49.234;7.268;2023-01-24T01:34:31;2.00;99.90
11079;DHT22;5592;49.234;7.268;2023-01-24T01:36:56;1.90;99.90
11079;DHT22;5592;49.234;7.268;2023-01-24T01:39:22;1.90;99.90
11079;DHT22;5592;49.234;7.268;2023-01-24T01:41:47;1.90;99.90
11079;DHT22;5592;49.234;7.268;2023-01-24T01:44:28;1.90;99.90
11079;DHT22;5592;49.234;7.268;2023-01-24T01:50:02;1.90;99.90
11079;DHT22;5592;49.234;7.268;2023-01-24T01:52:32;1.90;99.90
11079;DHT22;5592;49.234;7.268;2023-01-24T01:55:04;1.90;99.90
11079;DHT22;5592;49.234;7.268;2023-01-24T01:57:33;1.90;99.90
11079;DHT22;5592;49.234;7.268;2023-01-24T02:00:05;1.90;99.90
11079;DHT22;5592;49.234;7.268;2023-01-24T02:02:32;1.90;99.90
11079;DHT22;5592;49.234;7.268;2023-01-24T02:05:01;1.90;99.90
11079;DHT22;5592;49.234;7.268;2023-01-24T02:07:36;1.90;99.90
11079;DHT22;5592;49.234;7.268;2023-01-24T02:10:05;1.90;99.90
11079;DHT22;5592;49.234;7.268;2023-01-24T02:12:36;1.80;99.90
11079;DHT22;5592;49.234;7.268;2023-01-24T02:15:07;1.80;99.90
11079;DHT22;5592;49.234;7.268;2023-01-24T02:17:51;1.80;99.90
11079;DHT22;5592;49.234;7.268;2023-01-24T02:22:58;1.80;99.90
11079;DHT22;5592;49.234;7.268;2023-01-24T02:28:30;1.90;99.90
11079;DHT22;5592;49.234;7.268;2023-01-24T02:30:57;1.90;99.90
11079;DHT22;5592;49.234;7.268;2023-01-24T02:33:23;1.90;99.90
11079;DHT22;5592;49.234;7.268;2023-01-24T02:35:49;1.90;99.90
11079;DHT22;5592;49.234;7.268;2023-01-24T02:38:24;1.90;99.90
11079;DHT22;5592;49.234;7.268;2023-01-24T02:40:53;1.80;99.90
11079;DHT22;5592;49.234;7.268;2023-01-24T02:43:20;1.90;99.90
11079;DHT22;5592;49.234;7.268;2023-01-24T02:45:50;1.90;99.90
11079;DHT22;5592;49.234;7.268;2023-01-24T02:48:15;1.90;99.90
11079;DHT22;5592;49.234;7.268;2023-01-24T02:50:41;1.90;99.90
11079;DHT22;5592;49.234;7.268;2023-01-24T02:53:25;1.90;99.90
11079;DHT22;5592;49.234;7.268;2023-01-24T02:56:04;2.00;99.90
11079;DHT22;5592;49.234;7.268;2023-01-24T02:58:49;2.00;99.90
11079;DHT22;5592;49.234;7.268;2023-01-24T03:01:15;1.90;99.90
11079;DHT22;5592;49.234;7.268;2023-01-24T03:03:45;1.90;99.90
11079;DHT22;5592;49.234;7.268;2023-01-24T03:06:11;1.90;99.90
11079;DHT22;5592;49.234;7.268;2023-01-24T03:08:37;1.90;99.90
11079;DHT22;5592;49.234;7.268;2023-01-24T03:11:04;2.00;99.90
11079;DHT22;5592;49.234;7.268;2023-01-24T03:13:30;1.90;99.90
11079;DHT22;5592;49.234;7.268;2023-01-24T03:16:14;1.90;99.90
11079;DHT22;5592;49.234;7.268;2023-01-24T03:18:58;1.90;99.90
11079;DHT22;5592;49.234;7.268;2023-01-24T03:21:43;2.00;99.90
11079;DHT22;5592;49.234;7.268;2023-01-24T03:24:27;1.90;99.90
11079;DHT22;5592;49.234;7.268;2023-01-24T03:27:11;1.90;99.90
11079;DHT22;5592;49.234;7.268;2023-01-24T03:29:56;1.90;99.90
11079;DHT22;5592;49.234;7.268;2023-01-24T03:32:40;1.90;99.90
11079;DHT22;5592;49.234;7.268;2023-01-24T03:35:24;1.90;99.90
11079;DHT22;5592;49.234;7.268;2023-01-24T03:37:50;1.90;99.90
11079;DHT22;5592;49.234;7.268;2023-01-24T03:40:35;1.90;99.90
11079;DHT22;5592;49.234;7.268;2023-01-24T03:43:01;1.90;99.90
11079;DHT22;5592;49.234;7.268;2023-01-24T03:45:29;1.90;99.90
11079;DHT22;5592;49.234;7.268;2023-01-24T03:47:57;1.90;99.90
11079;DHT22;5592;49.234;7.268;2023-01-24T03:50:35;1.90;99.90
11079;DHT22;5592;49.234;7.268;2023-01-24T03:53:21;1.90;99.90
11079;DHT22;5592;49.234;7.268;2023-01-24T03:55:51;1.90;99.90
11079;DHT22;5592;49.234;7.268;2023-01-24T03:58:17;1.80;99.90
11079;DHT22;5592;49.234;7.268;2023-01-24T04:00:45;1.80;99.90
11079;DHT22;5592;49.234;7.268;2023-01-24T04:03:11;1.80;99.90
11079;DHT22;5592;49.234;7.268;2023-01-24T04:05:39;1.80;99.90
11079;DHT22;5592;49.234;7.268;2023-01-24T04:08:08;1.80;99.90
11079;DHT22;5592;49.234;7.268;2023-01-24T04:10:34;1.80;99.90
11079;DHT22;5592;49.234;7.268;2023-01-24T04:13:00;1.80;99.90
11079;DHT22;5592;49.234;7.268;2023-01-24T04:15:28;1.80;99.90
11079;DHT22;5592;49.234;7.268;2023-01-24T04:17:58;1.70;99.90
11079;DHT22;5592;49.234;7.268;2023-01-24T04:20:26;1.80;99.90
11079;DHT22;5592;49.234;7.268;2023-01-24T04:22:52;1.80;99.90
11079;DHT22;5592;49.234;7.268;2023-01-24T04:25:18;1.80;99.90
11079;DHT22;5592;49.234;7.268;2023-01-24T04:27:43;1.80;99.90
11079;DHT22;5592;49.234;7.268;2023-01-24T04:30:11;1.80;99.90
11079;DHT22;5592;49.234;7.268;2023-01-24T04:32:37;1.80;99.90
11079;DHT22;5592;49.234;7.268;2023-01-24T04:35:04;1.80;99.90
11079;DHT22;5592;49.234;7.268;2023-01-24T04:37:30;1.80;99.90
11079;DHT22;5592;49.234;7.268;2023-01-24T04:39:56;1.70;99.90
11079;DHT22;5592;49.234;7.268;2023-01-24T04:42:22;1.80;99.90
11079;DHT22;5592;49.234;7.268;2023-01-24T04:44:48;1.70;99.90
11079;DHT22;5592;49.234;7.268;2023-01-24T04:47:13;1.70;99.90
11079;DHT22;5592;49.234;7.268;2023-01-24T04:49:39;1.70;99.90
11079;DHT22;5592;49.234;7.268;2023-01-24T04:52:09;1.70;99.90
11079;DHT22;5592;49.234;7.268;2023-01-24T04:54:35;1.70;99.90
11079;DHT22;5592;49.234;7.268;2023-01-24T04:57:01;1.70;99.90
11079;DHT22;5592;49.234;7.268;2023-01-24T04:59:26;1.80;99.90
11079;DHT22;5592;49.234;7.268;2023-01-24T05:01:52;1.70;99.90
11079;DHT22;5592;49.234;7.268;2023-01-24T05:04:18;1.70;99.90
11079;DHT22;5592;49.234;7.268;2023-01-24T05:06:43;1.70;99.90
11079;DHT22;5592;49.234;7.268;2023-01-24T05:09:09;1.70;99.90
11079;DHT22;5592;49.234;7.268;2023-01-24T05:11:34;1.70;99.90
11079;DHT22;5592;49.234;7.268;2023-01-24T05:14:02;1.80;99.90
11079;DHT22;5592;49.234;7.268;2023-01-24T05:16:27;1.80;99.90
11079;DHT22;5592;49.234;7.268;2023-01-24T05:18:53;1.70;99.90
11079;DHT22;5592;49.234;7.268;2023-01-24T05:21:18;1.70;99.90
11079;DHT22;5592;49.234;7.268;2023-01-24T05:23:48;1.80;99.90
11079;DHT22;5592;49.234;7.268;2023-01-24T05:26:15;1.70;99.90
11079;DHT22;5592;49.234;7.268;2023-01-24T05:28:41;1.70;99.90
11079;DHT22;5592;49.234;7.268;2023-01-24T05:31:06;1.70;99.90
11079;DHT22;5592;49.234;7.268;2023-01-24T05:33:34;1.70;99.90
11079;DHT22;5592;49.234;7.268;2023-01-24T05:36:05;1.70;99.90
11079;DHT22;5592;49.234;7.268;2023-01-24T05:38:32;1.70;99.90
11079;DHT22;5592;49.234;7.268;2023-01-24T05:41:03;1.70;99.90
11079;DHT22;5592;49.234;7.268;2023-01-24T05:43:29;1.70;99.90
11079;DHT22;5592;49.234;7.268;2023-01-24T05:46:05;1.70;99.90
11079;DHT22;5592;49.234;7.268;2023-01-24T05:48:30;1.70;99.90
11079;DHT22;5592;49.234;7.268;2023-01-24T05:51:04;1.80;99.90
11079;DHT22;5592;49.234;7.268;2023-01-24T05:53:33;1.80;99.90
11079;DHT22;5592;49.234;7.268;2023-01-24T05:56:01;1.80;99.90
11079;DHT22;5592;49.234;7.268;2023-01-24T05:58:29;1.80;99.90
11079;DHT22;5592;49.234;7.268;2023-01-24T06:00:55;1.70;99.90
11079;DHT22;5592;49.234;7.268;2023-01-24T06:03:21;1.70;99.90
11079;DHT22;5592;49.234;7.268;2023-01-24T06:05:48;1.80;99.90
11079;DHT22;5592;49.234;7.268;2023-01-24T06:08:15;1.70;99.90
11079;DHT22;5592;49.234;7.268;2023-01-24T06:10:41;1.80;99.90
11079;DHT22;5592;49.234;7.268;2023-01-24T06:13:07;1.80;99.90
11079;DHT22;5592;49.234;7.268;2023-01-24T06:15:33;1.80;99.90
11079;DHT22;5592;49.234;7.268;2023-01-24T06:17:58;1.70;99.90
11079;DHT22;5592;49.234;7.268;2023-01-24T06:20:24;1.70;99.90
11079;DHT22;5592;49.234;7.268;2023-01-24T06:23:04;1.70;99.90
11079;DHT22;5592;49.234;7.268;2023-01-24T06:25:30;1.70;99.90
11079;DHT22;5592;49.234;7.268;2023-01-24T06:27:56;1.70;99.90
11079;DHT22;5592;49.234;7.268;2023-01-24T06:30:22;1.70;99.90
11079;DHT22;5592;49.234;7.268;2023-01-24T06:36:16;1.70;99.90
11079;DHT22;5592;49.234;7.268;2023-01-24T06:38:44;1.80;99.90
11079;DHT22;5592;49.234;7.268;2023-01-24T06:41:15;1.80;99.90
11079;DHT22;5592;49.234;7.268;2023-01-24T06:43:42;1.80;99.90
11079;DHT22;5592;49.234;7.268;2023-01-24T06:46:09;1.80;99.90
11079;DHT22;5592;49.234;7.268;2023-01-24T06:48:35;1.80;99.90
11079;DHT22;5592;49.234;7.268;2023-01-24T06:51:01;1.80;99.90
11079;DHT22;5592;49.234;7.268;2023-01-24T06:53:33;1.80;99.90
11079;DHT22;5592;49.234;7.268;2023-01-24T06:55:58;1.80;99.90
11079;DHT22;5592;49.234;7.268;2023-01-24T06:58:24;1.80;99.90
11079;DHT22;5592;49.234;7.268;2023-01-24T07:00:52;1.80;99.90
11079;DHT22;5592;49.234;7.268;2023-01-24T07:03:18;1.80;99.90
11079;DHT22;5592;49.234;7.268;2023-01-24T07:05:44;1.80;99.90
11079;DHT22;5592;49.234;7.268;2023-01-24T07:08:09;1.80;99.90
11079;DHT22;5592;49.234;7.268;2023-01-24T07:10:35;1.80;99.90
11079;DHT22;5592;49.234;7.268;2023-01-24T07:13:01;1.70;99.90
11079;DHT22;5592;49.234;7.268;2023-01-24T07:15:26;1.70;99.90
11079;DHT22;5592;49.234;7.268;2023-01-24T07:17:52;1.70;99.90
11079;DHT22;5592;49.234;7.268;2023-01-24T07:20:18;1.70;99.90
11079;DHT22;5592;49.234;7.268;2023-01-24T07:22:45;1.80;99.90
11079;DHT22;5592;49.234;7.268;2023-01-24T07:25:17;1.70;99.90
11079;DHT22;5592;49.234;7.268;2023-01-24T07:27:46;1.70;99.90
11079;DHT22;5592;49.234;7.268;2023-01-24T07:30:13;1.70;99.90
11079;DHT22;5592;49.234;7.268;2023-01-24T07:32:39;1.70;99.90
11079;DHT22;5592;49.234;7.268;2023-01-24T07:35:05;1.70;99.90
11079;DHT22;5592;49.234;7.268;2023-01-24T07:37:32;1.80;99.90
11079;DHT22;5592;49.234;7.268;2023-01-24T07:39:58;1.80;99.90
11079;DHT22;5592;49.234;7.268;2023-01-24T07:42:24;1.80;99.90
11079;DHT22;5592;49.234;7.268;2023-01-24T07:44:50;1.80;99.90
11079;DHT22;5592;49.234;7.268;2023-01-24T07:47:15;1.80;99.90
11079;DHT22;5592;49.234;7.268;2023-01-24T07:49:41;1.80;99.90
11079;DHT22;5592;49.234;7.268;2023-01-24T07:52:06;1.80;99.90
11079;DHT22;5592;49.234;7.268;2023-01-24T07:54:33;1.90;99.90
11079;DHT22;5592;49.234;7.268;2023-01-24T07:56:59;2.00;99.90
11079;DHT22;5592;49.234;7.268;2023-01-24T07:59:26;2.00;99.90
11079;DHT22;5592;49.234;7.268;2023-01-24T08:01:51;2.00;99.90
11079;DHT22;5592;49.234;7.268;2023-01-24T08:04:17;2.00;99.90
11079;DHT22;5592;49.234;7.268;2023-01-24T08:06:43;2.00;99.90
11079;DHT22;5592;49.234;7.268;2023-01-24T08:09:29;2.00;99.90
11079;DHT22;5592;49.234;7.268;2023-01-24T08:11:55;2.00;99.90
11079;DHT22;5592;49.234;7.268;2023-01-24T08:14:22;2.00;99.90
11079;DHT22;5592;49.234;7.268;2023-01-24T08:16:50;2.10;99.90
11079;DHT22;5592;49.234;7.268;2023-01-24T08:19:16;2.10;99.90
11079;DHT22;5592;49.234;7.268;2023-01-24T08:21:42;2.10;99.90
11079;DHT22;5592;49.234;7.268;2023-01-24T08:24:08;2.10;99.90
11079;DHT22;5592;49.234;7.268;2023-01-24T08:26:33;2.20;99.90
11079;DHT22;5592;49.234;7.268;2023-01-24T08:28:59;2.20;99.90
11079;DHT22;5592;49.234;7.268;2023-01-24T08:31:25;2.30;99.90
11079;DHT22;5592;49.234;7.268;2023-01-24T08:33:50;2.30;99.90
11079;DHT22;5592;49.234;7.268;2023-01-24T08:36:17;2.30;99.90
11079;DHT22;5592;49.234;7.268;2023-01-24T08:38:45;2.40;99.90
11079;DHT22;5592;49.234;7.268;2023-01-24T08:41:10;2.40;99.90
11079;DHT22;5592;49.234;7.268;2023-01-24T08:43:36;2.40;99.90
11079;DHT22;5592;49.234;7.268;2023-01-24T08:46:01;2.30;99.90
11079;DHT22;5592;49.234;7.268;2023-01-24T08:48:30;2.30;99.90
11079;DHT22;5592;49.234;7.268;2023-01-24T08:50:56;2.40;99.90
11079;DHT22;5592;49.234;7.268;2023-01-24T08:53:23;2.40;99.90
11079;DHT22;5592;49.234;7.268;2023-01-24T08:55:49;2.40;99.90
11079;DHT22;5592;49.234;7.268;2023-01-24T08:58:15;2.50;99.90
11079;DHT22;5592;49.234;7.268;2023-01-24T09:00:42;2.60;99.90
11079;DHT22;5592;49.234;7.268;2023-01-24T09:03:10;2.60;99.90
11079;DHT22;5592;49.234;7.268;2023-01-24T09:05:36;2.60;99.90
11079;DHT22;5592;49.234;7.268;2023-01-24T09:08:11;2.60;99.90
11079;DHT22;5592;49.234;7.268;2023-01-24T09:10:37;2.60;99.90
11079;DHT22;5592;49.234;7.268;2023-01-24T09:13:04;2.70;99.90
11079;DHT22;5592;49.234;7.268;2023-01-24T09:15:30;2.70;99.90
11079;DHT22;5592;49.234;7.268;2023-01-24T09:17:55;2.70;99.90
11079;DHT22;5592;49.234;7.268;2023-01-24T09:20:21;2.80;99.90
11079;DHT22;5592;49.234;7.268;2023-01-24T09:22:47;2.80;99.90
11079;DHT22;5592;49.234;7.268;2023-01-24T09:25:13;2.90;99.90
11079;DHT22;5592;49.234;7.268;2023-01-24T09:27:39;2.90;99.90
11079;DHT22;5592;49.234;7.268;2023-01-24T09:30:09;2.90;99.90
11079;DHT22;5592;49.234;7.268;2023-01-24T09:32:35;3.00;99.90
11079;DHT22;5592;49.234;7.268;2023-01-24T09:35:01;3.10;99.90
11079;DHT22;5592;49.234;7.268;2023-01-24T09:37:27;3.00;99.90
11079;DHT22;5592;49.234;7.268;2023-01-24T09:39:53;3.00;99.90
11079;DHT22;5592;49.234;7.268;2023-01-24T09:42:41;3.10;99.90
11079;DHT22;5592;49.234;7.268;2023-01-24T09:45:20;3.10;99.90
11079;DHT22;5592;49.234;7.268;2023-01-24T09:48:11;3.10;99.90
11079;DHT22;5592;49.234;7.268;2023-01-24T09:50:57;3.10;99.90
11079;DHT22;5592;49.234;7.268;2023-01-24T09:53:27;3.20;99.90
11079;DHT22;5592;49.234;7.268;2023-01-24T09:55:55;3.30;99.90
11079;DHT22;5592;49.234;7.268;2023-01-24T09:58:40;3.40;99.90
11079;DHT22;5592;49.234;7.268;2023-01-24T10:01:17;3.60;99.90
11079;DHT22;5592;49.234;7.268;2023-01-24T10:03:43;3.70;99.90
11079;DHT22;5592;49.234;7.268;2023-01-24T10:06:13;3.70;99.90
11079;DHT22;5592;49.234;7.268;2023-01-24T10:08:53;3.70;99.90
11079;DHT22;5592;49.234;7.268;2023-01-24T10:11:43;3.60;99.90
11079;DHT22;5592;49.234;7.268;2023-01-24T10:14:57;3.60;99.90
11079;DHT22;5592;49.234;7.268;2023-01-24T10:22:35;3.80;99.90
11079;DHT22;5592;49.234;7.268;2023-01-24T10:25:16;3.80;99.90
11079;DHT22;5592;49.234;7.268;2023-01-24T10:27:46;3.80;99.90
11079;DHT22;5592;49.234;7.268;2023-01-24T10:33:05;3.90;99.90
11079;DHT22;5592;49.234;7.268;2023-01-24T10:35:43;4.00;99.90
11079;DHT22;5592;49.234;7.268;2023-01-24T10:38:12;4.10;99.90
11079;DHT22;5592;49.234;7.268;2023-01-24T10:40:55;4.00;99.90
11079;DHT22;5592;49.234;7.268;2023-01-24T10:43:28;4.00;99.90
11079;DHT22;5592;49.234;7.268;2023-01-24T10:48:37;4.00;99.90
11079;DHT22;5592;49.234;7.268;2023-01-24T10:51:14;4.10;99.90
11079;DHT22;5592;49.234;7.268;2023-01-24T10:53:40;4.10;99.90
11079;DHT22;5592;49.234;7.268;2023-01-24T10:56:06;4.10;99.90
11079;DHT22;5592;49.234;7.268;2023-01-24T10:59:06;4.10;99.90
11079;DHT22;5592;49.234;7.268;2023-01-24T11:01:45;4.10;99.90
11079;DHT22;5592;49.234;7.268;2023-01-24T11:04:29;4.10;99.90
11079;DHT22;5592;49.234;7.268;2023-01-24T11:06:54;4.20;99.90
11079;DHT22;5592;49.234;7.268;2023-01-24T11:09:22;4.30;99.90
11079;DHT22;5592;49.234;7.268;2023-01-24T11:11:57;4.30;99.90
11079;DHT22;5592;49.234;7.268;2023-01-24T11:14:33;4.50;99.90
11079;DHT22;5592;49.234;7.268;2023-01-24T11:17:03;4.40;99.90
11079;DHT22;5592;49.234;7.268;2023-01-24T11:19:39;4.20;99.90
11079;DHT22;5592;49.234;7.268;2023-01-24T11:22:24;4.10;99.90
11079;DHT22;5592;49.234;7.268;2023-01-24T11:24:56;4.10;99.90
11079;DHT22;5592;49.234;7.268;2023-01-24T11:27:22;3.90;99.90
11079;DHT22;5592;49.234;7.268;2023-01-24T11:33:15;3.80;99.90
11079;DHT22;5592;49.234;7.268;2023-01-24T11:35:51;3.50;99.90
11079;DHT22;5592;49.234;7.268;2023-01-24T11:38:41;3.50;99.90
11079;DHT22;5592;49.234;7.268;2023-01-24T11:41:22;3.40;99.90
11079;DHT22;5592;49.234;7.268;2023-01-24T11:47:06;3.40;99.90
11079;DHT22;5592;49.234;7.268;2023-01-24T11:49:58;3.50;99.90
11079;DHT22;5592;49.234;7.268;2023-01-24T11:56:21;3.70;99.90
11079;DHT22;5592;49.234;7.268;2023-01-24T12:09:23;3.60;99.90
11079;DHT22;5592;49.234;7.268;2023-01-24T12:15:06;3.50;99.90
11079;DHT22;5592;49.234;7.268;2023-01-24T12:20:26;3.60;99.90
11079;DHT22;5592;49.234;7.268;2023-01-24T12:22:57;3.50;99.90
11079;DHT22;5592;49.234;7.268;2023-01-24T12:25:31;3.50;99.90
11079;DHT22;5592;49.234;7.268;2023-01-24T12:28:02;3.50;99.90
11079;DHT22;5592;49.234;7.268;2023-01-24T12:30:34;3.50;99.90
11079;DHT22;5592;49.234;7.268;2023-01-24T12:36:30;3.60;99.90
11079;DHT22;5592;49.234;7.268;2023-01-24T12:39:00;3.70;99.90
11079;DHT22;5592;49.234;7.268;2023-01-24T12:41:35;3.70;99.90
11079;DHT22;5592;49.234;7.268;2023-01-24T12:46:39;3.70;99.90
11079;DHT22;5592;49.234;7.268;2023-01-24T12:52:23;3.50;99.90
11079;DHT22;5592;49.234;7.268;2023-01-24T12:58:27;3.50;99.90
11079;DHT22;5592;49.234;7.268;2023-01-24T13:09:28;3.50;99.90
11079;DHT22;5592;49.234;7.268;2023-01-24T13:11:57;3.60;99.90
11079;DHT22;5592;49.234;7.268;2023-01-24T13:23:23;3.60;99.90
11079;DHT22;5592;49.234;7.268;2023-01-24T13:29:03;3.50;99.90
11079;DHT22;5592;49.234;7.268;2023-01-24T13:31:46;3.50;99.90
11079;DHT22;5592;49.234;7.268;2023-01-24T13:34:19;3.50;99.90
11079;DHT22;5592;49.234;7.268;2023-01-24T13:36:50;3.40;99.90
11079;DHT22;5592;49.234;7.268;2023-01-24T13:39:49;3.40;99.90
11079;DHT22;5592;49.234;7.268;2023-01-24T13:42:41;3.40;99.90
11079;DHT22;5592;49.234;7.268;2023-01-24T13:48:00;3.60;99.90
11079;DHT22;5592;49.234;7.268;2023-01-24T13:50:29;3.70;99.90
11079;DHT22;5592;49.234;7.268;2023-01-24T13:52:59;3.60;99.90
11079;DHT22;5592;49.234;7.268;2023-01-24T14:00:53;3.50;99.90
11079;DHT22;5592;49.234;7.268;2023-01-24T14:03:32;3.50;99.90
11079;DHT22;5592;49.234;7.268;2023-01-24T14:06:12;3.40;99.90
11079;DHT22;5592;49.234;7.268;2023-01-24T14:08:43;3.50;99.90
11079;DHT22;5592;49.234;7.268;2023-01-24T14:11:18;3.50;99.90
11079;DHT22;5592;49.234;7.268;2023-01-24T14:16:54;3.50;99.90
11079;DHT22;5592;49.234;7.268;2023-01-24T14:19:10;3.50;99.90
11079;DHT22;5592;49.234;7.268;2023-01-24T14:21:59;3.40;99.90
11079;DHT22;5592;49.234;7.268;2023-01-24T14:24:58;3.40;99.90
11079;DHT22;5592;49.234;7.268;2023-01-24T14:27:36;3.30;99.90
11079;DHT22;5592;49.234;7.268;2023-01-24T14:30:32;3.20;99.90
11079;DHT22;5592;49.234;7.268;2023-01-24T14:33:29;3.10;99.90
11079;DHT22;5592;49.234;7.268;2023-01-24T14:36:04;3.20;99.90
11079;DHT22;5592;49.234;7.268;2023-01-24T14:38:31;3.20;99.90
11079;DHT22;5592;49.234;7.268;2023-01-24T14:40:57;3.10;99.90
11079;DHT22;5592;49.234;7.268;2023-01-24T14:43:36;3.10;99.90
11079;DHT22;5592;49.234;7.268;2023-01-24T14:46:21;3.00;99.90
11079;DHT22;5592;49.234;7.268;2023-01-24T14:48:47;3.00;99.90
11079;DHT22;5592;49.234;7.268;2023-01-24T14:51:17;3.00;99.90
11079;DHT22;5592;49.234;7.268;2023-01-24T14:53:48;3.00;99.90
11079;DHT22;5592;49.234;7.268;2023-01-24T14:56:14;2.90;99.90
11079;DHT22;5592;49.234;7.268;2023-01-24T14:58:40;2.80;99.90
11079;DHT22;5592;49.234;7.268;2023-01-24T15:01:30;2.90;99.90
11079;DHT22;5592;49.234;7.268;2023-01-24T15:03:59;2.80;99.90
11079;DHT22;5592;49.234;7.268;2023-01-24T15:06:27;2.80;99.90
11079;DHT22;5592;49.234;7.268;2023-01-24T15:08:54;2.70;99.90
11079;DHT22;5592;49.234;7.268;2023-01-24T15:11:26;2.70;99.90
11079;DHT22;5592;49.234;7.268;2023-01-24T15:14:00;2.80;99.90
11079;DHT22;5592;49.234;7.268;2023-01-24T15:16:38;2.90;99.90
11079;DHT22;5592;49.234;7.268;2023-01-24T15:19:26;2.90;99.90
11079;DHT22;5592;49.234;7.268;2023-01-24T15:21:54;2.80;99.90
11079;DHT22;5592;49.234;7.268;2023-01-24T15:24:26;2.80;99.90
11079;DHT22;5592;49.234;7.268;2023-01-24T15:26:53;2.80;99.90
11079;DHT22;5592;49.234;7.268;2023-01-24T15:29:49;2.70;99.90
11079;DHT22;5592;49.234;7.268;2023-01-24T15:32:19;2.70;99.90
11079;DHT22;5592;49.234;7.268;2023-01-24T15:34:45;2.60;99.90
11079;DHT22;5592;49.234;7.268;2023-01-24T15:37:13;2.60;99.90
11079;DHT22;5592;49.234;7.268;2023-01-24T15:39:40;2.60;99.90
11079;DHT22;5592;49.234;7.268;2023-01-24T15:42:13;2.50;99.90
11079;DHT22;5592;49.234;7.268;2023-01-24T15:44:58;2.50;99.90
11079;DHT22;5592;49.234;7.268;2023-01-24T15:47:24;2.50;99.90
11079;DHT22;5592;49.234;7.268;2023-01-24T15:50:27;2.50;99.90
11079;DHT22;5592;49.234;7.268;2023-01-24T15:55:44;2.50;99.90
11079;DHT22;5592;49.234;7.268;2023-01-24T15:58:10;2.50;99.90
11079;DHT22;5592;49.234;7.268;2023-01-24T16:00:36;2.50;99.90
11079;DHT22;5592;49.234;7.268;2023-01-24T16:03:02;2.50;99.90
11079;DHT22;5592;49.234;7.268;2023-01-24T16:05:28;2.40;99.90
11079;DHT22;5592;49.234;7.268;2023-01-24T16:07:55;2.40;99.90
11079;DHT22;5592;49.234;7.268;2023-01-24T16:10:20;2.40;99.90
11079;DHT22;5592;49.234;7.268;2023-01-24T16:12:49;2.40;99.90
11079;DHT22;5592;49.234;7.268;2023-01-24T16:15:18;2.40;99.90
11079;DHT22;5592;49.234;7.268;2023-01-24T16:17:44;2.40;99.90
11079;DHT22;5592;49.234;7.268;2023-01-24T16:22:45;2.40;99.90
11079;DHT22;5592;49.234;7.268;2023-01-24T16:25:11;2.40;99.90
11079;DHT22;5592;49.234;7.268;2023-01-24T16:27:37;2.30;99.90
11079;DHT22;5592;49.234;7.268;2023-01-24T16:30:05;2.30;99.90
11079;DHT22;5592;49.234;7.268;2023-01-24T16:32:31;2.30;99.90
11079;DHT22;5592;49.234;7.268;2023-01-24T16:34:58;2.30;99.90
11079;DHT22;5592;49.234;7.268;2023-01-24T16:37:23;2.30;99.90
11079;DHT22;5592;49.234;7.268;2023-01-24T16:39:49;2.30;99.90
11079;DHT22;5592;49.234;7.268;2023-01-24T16:42:17;2.20;99.90
11079;DHT22;5592;49.234;7.268;2023-01-24T16:44:43;2.30;99.90
11079;DHT22;5592;49.234;7.268;2023-01-24T16:47:17;2.20;99.90
11079;DHT22;5592;49.234;7.268;2023-01-24T16:49:43;2.30;99.90
11079;DHT22;5592;49.234;7.268;2023-01-24T16:52:09;2.30;99.90
11079;DHT22;5592;49.234;7.268;2023-01-24T16:54:35;2.30;99.90
11079;DHT22;5592;49.234;7.268;2023-01-24T16:57:00;2.30;99.90
11079;DHT22;5592;49.234;7.268;2023-01-24T16:59:26;2.30;99.90
11079;DHT22;5592;49.234;7.268;2023-01-24T17:01:52;2.30;99.90
11079;DHT22;5592;49.234;7.268;2023-01-24T17:04:17;2.30;99.90
11079;DHT22;5592;49.234;7.268;2023-01-24T17:06:43;2.30;99.90
11079;DHT22;5592;49.234;7.268;2023-01-24T17:09:08;2.30;99.90
11079;DHT22;5592;49.234;7.268;2023-01-24T17:11:34;2.30;99.90
11079;DHT22;5592;49.234;7.268;2023-01-24T17:14:00;2.30;99.90
11079;DHT22;5592;49.234;7.268;2023-01-24T17:16:25;2.20;99.90
11079;DHT22;5592;49.234;7.268;2023-01-24T17:18:53;2.20;99.90
11079;DHT22;5592;49.234;7.268;2023-01-24T17:21:19;2.20;99.90
11079;DHT22;5592;49.234;7.268;2023-01-24T17:23:45;2.30;99.90
11079;DHT22;5592;49.234;7.268;2023-01-24T17:26:13;2.30;99.90
11079;DHT22;5592;49.234;7.268;2023-01-24T17:28:40;2.30;99.90
11079;DHT22;5592;49.234;7.268;2023-01-24T17:31:10;2.30;99.90
11079;DHT22;5592;49.234;7.268;2023-01-24T17:33:36;2.30;99.90
11079;DHT22;5592;49.234;7.268;2023-01-24T17:36:03;2.30;99.90
11079;DHT22;5592;49.234;7.268;2023-01-24T17:38:28;2.30;99.90
11079;DHT22;5592;49.234;7.268;2023-01-24T17:40:54;2.20;99.90
11079;DHT22;5592;49.234;7.268;2023-01-24T17:43:19;2.20;99.90
11079;DHT22;5592;49.234;7.268;2023-01-24T17:45:56;2.20;99.90
11079;DHT22;5592;49.234;7.268;2023-01-24T17:48:23;2.10;99.90
11079;DHT22;5592;49.234;7.268;2023-01-24T17:50:49;2.10;99.90
11079;DHT22;5592;49.234;7.268;2023-01-24T17:53:15;2.10;99.90
11079;DHT22;5592;49.234;7.268;2023-01-24T17:55:41;2.10;99.90
11079;DHT22;5592;49.234;7.268;2023-01-24T17:58:07;2.10;99.90
11079;DHT22;5592;49.234;7.268;2023-01-24T18:00:33;2.10;99.90